Time;durP1;ratioP1;P1;durP2;ratioP2;P2;SDS_P1;SDS_P2;PMS_P1;PMS_P2;Temp;Humidity;BMP_temperature;BMP_pressure;BME280_temperature;BME280_humidity;BME280_pressure;Samples;Min_cycle;Max_cycle;Signal;HPM_P1;HPM_P2
2022/11/09 00:01:27;;;;;;;31.52;18.83;;;9.70;99.90;;;;;;5043035;28;20033;-88
2022/11/09 00:03:55;;;;;;;19.10;11.77;;;9.70;99.90;;;;;;5047657;28;20033;-89
2022/11/09 00:07:16;;;;;;;16.67;9.75;;;9.80;99.90;;;;;;5029360;28;20029;-88
2022/11/09 00:09:42;;;;;;;16.38;8.82;;;9.80;99.90;;;;;;5044146;28;20080;-88
2022/11/09 00:12:07;;;;;;;13.55;8.75;;;9.80;99.90;;;;;;5046394;28;20773;-88
2022/11/09 00:14:33;;;;;;;19.40;9.90;;;9.90;99.90;;;;;;5028969;28;20033;-88
2022/11/09 00:16:59;;;;;;;17.70;11.38;;;9.80;99.90;;;;;;5045830;28;20075;-89
2022/11/09 00:19:25;;;;;;;18.05;10.63;;;9.70;99.90;;;;;;5045859;28;20025;-89
2022/11/09 00:21:51;;;;;;;17.63;11.20;;;9.50;99.90;;;;;;5043130;28;20081;-88
2022/11/09 00:24:17;;;;;;;22.40;12.20;;;9.40;99.90;;;;;;5046377;28;20027;-89
2022/11/09 00:26:43;;;;;;;21.75;12.40;;;9.30;99.90;;;;;;5027786;28;20111;-88
2022/11/09 00:29:09;;;;;;;22.92;11.95;;;9.20;99.90;;;;;;5046823;28;20024;-88
2022/11/09 00:31:35;;;;;;;20.58;11.77;;;9.10;99.90;;;;;;5045950;28;20025;-87
2022/11/09 00:34:00;;;;;;;19.63;11.15;;;9.10;99.90;;;;;;5036622;28;20025;-88
2022/11/09 00:36:27;;;;;;;20.85;11.73;;;9.00;99.90;;;;;;5029973;28;20033;-89
2022/11/09 00:38:56;;;;;;;22.55;11.70;;;8.90;99.90;;;;;;5026313;28;20036;-89
2022/11/09 00:41:22;;;;;;;27.65;12.10;;;9.00;99.90;;;;;;5047650;28;20704;-89
2022/11/09 00:43:48;;;;;;;15.93;10.90;;;9.00;99.90;;;;;;5027003;28;20029;-89
2022/11/09 00:46:15;;;;;;;20.40;12.25;;;9.00;99.90;;;;;;5046498;28;20090;-89
2022/11/09 00:48:42;;;;;;;22.02;10.98;;;9.00;99.90;;;;;;5044443;28;20549;-88
2022/11/09 00:51:08;;;;;;;20.52;12.85;;;9.00;99.90;;;;;;5047088;28;20025;-89
2022/11/09 00:53:34;;;;;;;21.65;12.45;;;9.00;99.90;;;;;;5043145;28;20088;-88
2022/11/09 00:56:03;;;;;;;20.65;13.18;;;9.00;99.90;;;;;;5019933;28;20055;-89
2022/11/09 00:58:33;;;;;;;21.77;12.88;;;9.00;99.90;;;;;;5018197;28;20488;-89
2022/11/09 01:01:15;;;;;;;20.00;12.48;;;9.10;99.90;;;;;;5044027;28;20104;-89
2022/11/09 01:03:42;;;;;;;;;;;9.10;99.90;;;;;;5045032;28;20025;-89
2022/11/09 01:06:41;;;;;;;57.38;29.40;;;9.10;99.90;;;;;;5045133;28;20338;-88
2022/11/09 01:09:09;;;;;;;74.63;45.60;;;9.10;99.90;;;;;;5032172;28;20018;-88
2022/11/09 01:11:36;;;;;;;36.15;22.65;;;9.10;99.90;;;;;;5065578;28;20067;-88
2022/11/09 01:14:02;;;;;;;39.58;25.33;;;9.00;99.90;;;;;;5029796;28;20171;-88
2022/11/09 01:16:28;;;;;;;32.33;21.55;;;9.10;99.90;;;;;;5049760;28;20063;-88
2022/11/09 01:18:56;;;;;;;23.55;15.18;;;9.10;99.90;;;;;;5025816;28;20094;-87
2022/11/09 01:21:24;;;;;;;26.15;15.45;;;9.10;99.90;;;;;;5042286;28;20175;-88
2022/11/09 01:23:50;;;;;;;23.10;15.27;;;9.10;99.90;;;;;;5048663;28;20404;-87
2022/11/09 01:26:15;;;;;;;24.45;15.75;;;9.10;99.90;;;;;;5027993;28;20018;-86
2022/11/09 01:28:42;;;;;;;27.42;15.45;;;9.10;99.90;;;;;;5029746;28;20035;-86
2022/11/09 01:31:17;;;;;;;29.52;15.50;;;9.20;99.90;;;;;;5027980;28;20120;-86
2022/11/09 01:33:43;;;;;;;33.03;15.57;;;9.20;99.90;;;;;;5042985;28;20185;-86
2022/11/09 01:36:13;;;;;;;20.75;12.63;;;9.20;99.90;;;;;;5045733;28;20068;-87
2022/11/09 01:38:39;;;;;;;18.27;11.68;;;9.40;99.90;;;;;;5023520;28;20358;-87
2022/11/09 01:41:11;;;;;;;20.77;13.73;;;9.40;99.90;;;;;;5046409;28;20103;-87
2022/11/09 01:43:36;;;;;;;23.13;12.75;;;9.40;99.90;;;;;;5043202;28;20033;-87
2022/11/09 01:46:19;;;;;;;20.23;12.55;;;9.40;99.90;;;;;;5031697;28;20085;-87
2022/11/09 01:48:54;;;;;;;24.75;14.13;;;9.40;99.90;;;;;;5024587;28;20117;-86
2022/11/09 01:51:31;;;;;;;23.02;12.95;;;9.50;99.90;;;;;;5042929;28;20166;-85
2022/11/09 01:54:16;;;;;;;16.42;12.07;;;9.50;99.90;;;;;;5031773;28;20357;-86
2022/11/09 01:56:44;;;;;;;25.35;13.60;;;9.50;99.90;;;;;;5040241;28;20469;-87
2022/11/09 01:59:19;;;;;;;17.35;12.20;;;9.50;99.90;;;;;;5025842;28;20028;-86
2022/11/09 02:01:46;;;;;;;18.58;12.90;;;9.50;99.90;;;;;;5025025;28;20029;-86
2022/11/09 02:04:21;;;;;;;23.42;13.38;;;9.40;99.90;;;;;;5032592;28;20106;-85
2022/11/09 02:06:49;;;;;;;23.17;14.95;;;9.40;99.90;;;;;;5024863;28;20025;-85
2022/11/09 02:09:58;;;;;;;19.88;13.82;;;9.40;99.90;;;;;;5047660;28;20017;-85
2022/11/09 02:12:26;;;;;;;19.00;13.93;;;9.40;99.90;;;;;;5024827;28;20037;-87
2022/11/09 02:14:53;;;;;;;23.42;14.30;;;9.40;99.90;;;;;;5031181;28;20040;-87
2022/11/09 02:21:07;;;;;;;29.13;16.73;;;9.30;99.90;;;;;;5040714;28;20028;-87
2022/11/09 02:23:33;;;;;;;32.03;15.30;;;9.40;99.90;;;;;;5029342;28;20504;-86
2022/11/09 02:26:04;;;;;;;31.45;16.50;;;9.40;99.90;;;;;;5029837;28;20037;-86
2022/11/09 02:28:31;;;;;;;29.13;15.57;;;9.40;99.90;;;;;;5029639;28;20052;-86
2022/11/09 02:30:57;;;;;;;28.27;17.10;;;9.50;99.90;;;;;;5027011;28;20500;-86
2022/11/09 02:33:24;;;;;;;28.35;17.80;;;9.50;99.90;;;;;;5029294;28;20032;-86
2022/11/09 02:35:51;;;;;;;32.78;18.55;;;9.50;99.90;;;;;;5026786;28;20029;-87
2022/11/09 02:38:16;;;;;;;32.28;18.75;;;9.50;99.90;;;;;;5032575;28;20017;-87
2022/11/09 02:40:47;;;;;;;37.97;20.30;;;9.50;99.90;;;;;;5017284;28;20088;-87
2022/11/09 02:43:14;;;;;;;38.80;20.30;;;9.50;99.90;;;;;;5029070;28;20087;-87
2022/11/09 02:45:40;;;;;;;40.00;20.70;;;9.40;99.90;;;;;;5044483;28;20025;-87
2022/11/09 02:48:06;;;;;;;35.92;21.08;;;9.40;99.90;;;;;;5045657;28;20071;-87
2022/11/09 02:50:35;;;;;;;40.65;21.25;;;9.40;99.90;;;;;;5028613;28;20025;-87
2022/11/09 02:53:20;;;;;;;44.95;22.48;;;9.50;99.90;;;;;;5028984;28;20024;-87
2022/11/09 02:55:46;;;;;;;36.88;22.20;;;9.50;99.90;;;;;;5043739;28;20035;-87
2022/11/09 02:58:13;;;;;;;45.67;23.30;;;9.50;99.90;;;;;;5029172;28;20025;-87
2022/11/09 03:00:38;;;;;;;50.05;26.13;;;9.60;99.90;;;;;;5027803;28;20032;-87
2022/11/09 03:03:05;;;;;;;55.15;30.80;;;9.60;99.90;;;;;;5038694;28;20473;-87
2022/11/09 03:05:31;;;;;;;54.30;30.52;;;9.70;99.90;;;;;;5043377;28;20064;-86
2022/11/09 03:08:01;;;;;;;47.17;25.55;;;9.80;99.90;;;;;;5038532;28;20017;-87
2022/11/09 03:10:27;;;;;;;47.85;23.92;;;9.90;99.90;;;;;;5028067;28;20075;-86
2022/11/09 03:12:54;;;;;;;40.35;23.30;;;9.90;99.90;;;;;;5045116;28;20056;-86
2022/11/09 03:15:29;;;;;;;44.00;24.80;;;9.90;99.90;;;;;;5028214;28;20366;-86
2022/11/09 03:17:55;;;;;;;46.88;25.13;;;10.00;99.90;;;;;;5028519;28;20025;-87
2022/11/09 03:20:21;;;;;;;40.08;24.25;;;10.00;99.90;;;;;;5028432;28;20036;-86
2022/11/09 03:22:47;;;;;;;40.10;24.15;;;10.00;99.90;;;;;;5044104;28;20037;-86
2022/11/09 03:25:50;;;;;;;40.38;22.92;;;10.00;99.90;;;;;;5029406;28;20108;-86
2022/11/09 03:28:16;;;;;;;41.05;22.60;;;10.00;99.90;;;;;;5028475;28;20048;-87
2022/11/09 03:30:43;;;;;;;44.85;23.30;;;10.00;99.90;;;;;;5028599;28;20029;-86
2022/11/09 03:33:18;;;;;;;45.78;25.90;;;10.10;99.90;;;;;;5045505;28;20039;-87
2022/11/09 03:35:44;;;;;;;52.53;28.08;;;10.10;99.90;;;;;;5027328;28;20067;-87
2022/11/09 03:38:13;;;;;;;61.05;28.15;;;10.10;99.90;;;;;;5045412;28;20025;-87
2022/11/09 03:40:45;;;;;;;51.88;28.02;;;10.00;99.90;;;;;;5044030;28;20029;-87
2022/11/09 03:43:10;;;;;;;61.83;29.70;;;10.00;99.90;;;;;;5031949;28;20026;-87
2022/11/09 03:45:37;;;;;;;59.20;30.05;;;10.00;99.90;;;;;;5030505;28;20124;-87
2022/11/09 03:48:03;;;;;;;75.13;28.80;;;10.00;99.90;;;;;;5028801;28;20073;-87
2022/11/09 03:50:31;;;;;;;70.88;27.00;;;10.00;99.90;;;;;;5028344;28;20043;-87
2022/11/09 03:52:57;;;;;;;71.68;28.08;;;10.00;99.90;;;;;;5038403;28;20421;-87
2022/11/09 03:55:29;;;;;;;85.35;30.35;;;10.00;99.90;;;;;;5046588;28;20098;-87
2022/11/09 03:57:55;;;;;;;95.47;31.70;;;10.00;99.90;;;;;;5041451;28;20021;-87
2022/11/09 04:00:24;;;;;;;193.10;36.00;;;10.00;99.90;;;;;;5046741;28;20028;-87
2022/11/09 04:03:17;;;;;;;310.35;41.20;;;10.00;99.90;;;;;;5020210;28;20115;-87
2022/11/09 04:05:43;;;;;;;471.40;49.13;;;10.00;99.90;;;;;;5040866;28;20484;-87
2022/11/09 04:08:09;;;;;;;228.30;38.25;;;9.90;99.90;;;;;;5028171;28;20078;-87
2022/11/09 04:10:34;;;;;;;324.75;42.05;;;10.00;99.90;;;;;;5026746;28;20159;-87
2022/11/09 04:13:00;;;;;;;480.55;49.83;;;9.90;99.90;;;;;;5044806;28;20033;-87
2022/11/09 04:15:26;;;;;;;517.63;55.05;;;9.90;99.90;;;;;;5028560;28;20088;-87
2022/11/09 04:17:57;;;;;;;319.65;43.45;;;9.90;99.90;;;;;;5044117;28;20419;-87
2022/11/09 04:20:23;;;;;;;469.50;47.27;;;9.90;99.90;;;;;;5027091;28;20037;-87
2022/11/09 04:23:00;;;;;;;239.20;37.83;;;9.90;99.90;;;;;;5026927;28;20025;-87
2022/11/09 04:25:27;;;;;;;143.30;36.50;;;9.90;99.90;;;;;;5027283;28;20025;-87
2022/11/09 04:27:57;;;;;;;158.40;34.85;;;10.00;99.90;;;;;;5043821;28;20481;-87
2022/11/09 04:30:26;;;;;;;282.50;37.10;;;9.90;99.90;;;;;;5044766;28;20036;-87
2022/11/09 04:32:52;;;;;;;451.55;43.35;;;10.00;99.90;;;;;;5043637;28;20040;-88
2022/11/09 04:35:52;;;;;;;342.15;36.92;;;9.90;99.90;;;;;;5045316;28;20025;-87
2022/11/09 04:38:18;;;;;;;405.15;35.63;;;9.90;99.90;;;;;;5039212;28;20044;-87
2022/11/09 04:40:43;;;;;;;373.80;40.28;;;9.90;99.90;;;;;;5041960;28;20037;-87
2022/11/09 04:43:12;;;;;;;363.38;36.70;;;9.90;99.90;;;;;;5044238;28;20043;-87
2022/11/09 04:45:38;;;;;;;388.27;35.40;;;9.90;99.90;;;;;;5026332;28;20083;-87
2022/11/09 04:48:06;;;;;;;468.10;36.88;;;9.90;99.90;;;;;;5033465;28;20041;-88
2022/11/09 04:50:32;;;;;;;534.70;41.08;;;9.90;99.90;;;;;;5026495;28;20119;-87
2022/11/09 04:53:10;;;;;;;340.45;34.67;;;9.90;99.90;;;;;;5023654;28;20075;-88
2022/11/09 04:56:19;;;;;;;630.13;48.45;;;9.90;99.90;;;;;;5046935;28;20067;-87
2022/11/09 04:58:45;;;;;;;485.42;37.15;;;9.80;99.90;;;;;;5024259;28;20044;-86
2022/11/09 05:01:41;;;;;;;742.00;51.33;;;9.70;99.90;;;;;;5045537;28;20025;-87
2022/11/09 05:04:07;;;;;;;507.23;39.10;;;9.70;99.90;;;;;;5020307;28;20443;-86
2022/11/09 05:06:33;;;;;;;428.85;37.15;;;9.60;99.90;;;;;;5043801;28;20060;-87
2022/11/09 05:09:05;;;;;;;544.20;43.33;;;9.60;99.90;;;;;;5026580;28;20028;-87
2022/11/09 05:11:32;;;;;;;313.20;31.98;;;9.50;99.90;;;;;;5045331;28;20029;-86
2022/11/09 05:13:58;;;;;;;229.95;26.65;;;9.40;99.90;;;;;;5025616;28;20556;-87
2022/11/09 05:16:24;;;;;;;175.07;25.08;;;9.40;99.90;;;;;;5027696;28;20379;-87
2022/11/09 05:18:50;;;;;;;381.15;30.23;;;9.40;99.90;;;;;;5024428;28;20032;-87
2022/11/09 05:21:17;;;;;;;210.23;24.88;;;9.40;99.90;;;;;;5044434;28;20036;-87
2022/11/09 05:23:57;;;;;;;228.93;24.50;;;9.50;99.90;;;;;;5043058;28;20369;-88
2022/11/09 05:26:25;;;;;;;319.33;30.17;;;9.50;99.90;;;;;;5047232;28;20040;-87
2022/11/09 05:28:51;;;;;;;306.77;28.95;;;9.60;99.90;;;;;;5024161;28;20025;-87
2022/11/09 05:31:17;;;;;;;330.92;27.40;;;9.60;99.90;;;;;;5045903;28;20538;-87
2022/11/09 05:33:43;;;;;;;191.65;24.67;;;9.60;99.90;;;;;;5041500;28;20046;-87
2022/11/09 05:36:09;;;;;;;149.00;24.23;;;9.60;99.90;;;;;;5039841;28;20030;-87
2022/11/09 05:38:34;;;;;;;132.82;23.42;;;9.70;99.90;;;;;;5047309;28;20040;-87
2022/11/09 05:41:00;;;;;;;147.25;22.13;;;9.80;99.90;;;;;;5023498;28;20129;-87
2022/11/09 05:43:35;;;;;;;68.57;20.65;;;9.80;99.90;;;;;;5049628;28;20033;-87
2022/11/09 05:46:22;;;;;;;173.38;25.00;;;9.80;99.90;;;;;;5039511;28;20057;-87
2022/11/09 05:48:48;;;;;;;71.15;19.27;;;9.80;99.90;;;;;;5051119;28;20488;-86
2022/11/09 05:51:15;;;;;;;144.02;21.85;;;9.90;99.90;;;;;;5043720;28;20032;-87
2022/11/09 05:53:40;;;;;;;127.13;23.23;;;9.90;99.90;;;;;;5044622;28;20032;-88
2022/11/09 05:56:09;;;;;;;168.27;25.35;;;9.90;99.90;;;;;;5047935;28;20026;-87
2022/11/09 05:58:37;;;;;;;223.77;26.17;;;9.90;99.90;;;;;;5043591;28;20087;-86
2022/11/09 06:01:09;;;;;;;79.97;22.65;;;9.90;99.90;;;;;;5032897;28;20026;-87
2022/11/09 06:03:35;;;;;;;246.88;28.92;;;9.90;99.90;;;;;;5022478;28;20041;-87
2022/11/09 06:06:02;;;;;;;203.02;28.33;;;10.00;99.90;;;;;;5046882;28;20104;-87
2022/11/09 06:08:28;;;;;;;406.05;36.08;;;9.90;99.90;;;;;;5045694;28;20028;-87
2022/11/09 06:10:59;;;;;;;611.30;41.90;;;9.90;99.90;;;;;;5045955;28;20017;-87
2022/11/09 06:13:26;;;;;;;608.40;41.22;;;9.90;99.90;;;;;;5047529;28;20060;-86
2022/11/09 06:15:53;;;;;;;365.40;35.67;;;9.80;99.90;;;;;;5045882;28;20881;-86
2022/11/09 06:18:19;;;;;;;468.15;36.20;;;9.80;99.90;;;;;;5046373;28;20114;-87
2022/11/09 06:20:44;;;;;;;510.40;39.53;;;9.70;99.90;;;;;;5027354;28;20465;-87
2022/11/09 06:23:11;;;;;;;660.88;50.03;;;9.70;99.90;;;;;;5029474;28;20036;-87
2022/11/09 06:25:36;;;;;;;633.00;48.40;;;9.60;99.90;;;;;;5021090;28;20034;-88
2022/11/09 06:28:02;;;;;;;323.70;38.25;;;9.60;99.90;;;;;;5013846;28;20029;-88
2022/11/09 06:30:28;;;;;;;384.33;39.70;;;9.60;99.90;;;;;;5028181;28;20061;-88
2022/11/09 06:33:01;;;;;;;631.60;54.95;;;9.60;99.90;;;;;;5031193;28;20033;-88
2022/11/09 06:35:27;;;;;;;722.30;59.28;;;9.60;99.90;;;;;;5042151;28;20480;-88
2022/11/09 06:37:58;;;;;;;333.60;37.75;;;9.60;99.90;;;;;;5027736;28;20036;-87
2022/11/09 06:40:24;;;;;;;479.33;42.67;;;9.60;99.90;;;;;;5023660;28;20169;-88
2022/11/09 06:42:50;;;;;;;422.77;41.30;;;9.50;99.90;;;;;;5028315;28;20034;-88
2022/11/09 06:45:16;;;;;;;206.35;30.23;;;9.50;99.90;;;;;;5027919;28;20445;-88
2022/11/09 06:47:41;;;;;;;151.93;26.40;;;9.50;99.90;;;;;;5040935;28;20040;-88
2022/11/09 06:50:08;;;;;;;138.52;22.27;;;9.50;99.90;;;;;;5043473;28;20061;-88
2022/11/09 06:52:34;;;;;;;77.63;20.30;;;9.50;99.90;;;;;;5025535;28;20037;-87
2022/11/09 06:55:00;;;;;;;112.70;22.45;;;9.50;99.90;;;;;;5027653;28;20385;-88
2022/11/09 06:57:28;;;;;;;94.72;20.50;;;9.50;99.90;;;;;;5043409;28;20029;-88
2022/11/09 06:59:54;;;;;;;37.17;17.60;;;9.50;99.90;;;;;;5024867;28;20502;-88
2022/11/09 07:02:21;;;;;;;64.40;17.77;;;9.50;99.90;;;;;;5021155;28;20018;-88
2022/11/09 07:04:50;;;;;;;58.00;21.30;;;9.60;99.90;;;;;;5011132;28;20354;-87
2022/11/09 07:07:16;;;;;;;98.72;21.48;;;9.60;99.90;;;;;;5031041;28;20025;-87
2022/11/09 07:09:42;;;;;;;216.27;27.35;;;9.60;99.90;;;;;;5025176;28;20423;-86
2022/11/09 07:12:08;;;;;;;198.35;38.72;;;9.50;99.90;;;;;;5031935;28;20051;-87
2022/11/09 07:14:34;;;;;;;180.27;27.90;;;9.50;99.90;;;;;;5029563;28;20405;-87
2022/11/09 07:17:00;;;;;;;332.70;26.13;;;9.50;99.90;;;;;;5020717;28;20040;-87
2022/11/09 07:19:28;;;;;;;456.23;34.85;;;9.50;99.90;;;;;;5016514;28;20535;-87
2022/11/09 07:21:54;;;;;;;133.60;21.13;;;9.40;99.90;;;;;;5039456;28;20044;-87
2022/11/09 07:24:20;;;;;;;517.17;33.53;;;9.50;99.90;;;;;;5031758;28;20067;-87
2022/11/09 07:26:47;;;;;;;453.25;33.58;;;9.50;99.90;;;;;;5037462;28;20108;-87
2022/11/09 07:29:13;;;;;;;331.05;29.55;;;9.50;99.90;;;;;;5033929;28;20021;-88
2022/11/09 07:31:39;;;;;;;538.10;34.80;;;9.50;99.90;;;;;;5039184;28;20159;-88
2022/11/09 07:34:04;;;;;;;766.13;44.72;;;9.50;99.90;;;;;;5034992;28;20033;-87
2022/11/09 07:36:31;;;;;;;452.83;32.83;;;9.40;99.90;;;;;;5040643;28;20075;-87
2022/11/09 07:38:57;;;;;;;438.40;33.85;;;9.40;99.90;;;;;;5038504;28;20064;-87
2022/11/09 07:41:23;;;;;;;604.47;38.85;;;9.40;99.90;;;;;;5045124;28;20135;-87
2022/11/09 07:43:49;;;;;;;474.13;34.60;;;9.40;99.90;;;;;;5024216;28;20116;-87
2022/11/09 07:46:15;;;;;;;525.35;35.25;;;9.40;99.90;;;;;;5046059;28;20031;-87
2022/11/09 07:48:40;;;;;;;682.17;40.75;;;9.50;99.90;;;;;;5025078;28;20036;-87
2022/11/09 07:51:06;;;;;;;651.83;41.80;;;9.60;99.90;;;;;;5034438;28;20037;-87
2022/11/09 07:53:32;;;;;;;714.35;44.35;;;9.60;99.90;;;;;;5033410;28;20033;-87
2022/11/09 07:56:00;;;;;;;491.60;35.13;;;9.70;99.90;;;;;;5019113;28;20040;-87
2022/11/09 07:58:26;;;;;;;530.00;35.03;;;9.60;99.90;;;;;;5035365;28;20388;-87
2022/11/09 08:00:52;;;;;;;674.25;37.90;;;9.70;99.90;;;;;;5021007;28;20048;-88
2022/11/09 08:03:20;;;;;;;622.55;36.92;;;9.60;99.90;;;;;;5025298;28;20037;-87
2022/11/09 08:05:46;;;;;;;167.45;19.83;;;9.60;99.90;;;;;;5038254;28;20033;-87
2022/11/09 08:08:14;;;;;;;464.55;31.33;;;9.60;99.90;;;;;;5031760;28;20021;-87
2022/11/09 08:10:40;;;;;;;487.67;31.63;;;9.70;99.90;;;;;;5040633;28;20018;-88
2022/11/09 08:13:10;;;;;;;399.83;28.42;;;9.80;99.90;;;;;;5018655;28;20056;-87
2022/11/09 08:15:37;;;;;;;303.05;25.52;;;9.80;99.90;;;;;;5040382;28;20025;-87
2022/11/09 08:18:11;;;;;;;369.42;28.27;;;9.90;99.90;;;;;;5019306;28;20033;-87
2022/11/09 08:20:37;;;;;;;288.95;24.60;;;10.00;99.90;;;;;;5032127;28;20041;-88
2022/11/09 08:23:03;;;;;;;293.27;25.63;;;9.90;99.90;;;;;;5021073;28;20086;-89
2022/11/09 08:25:29;;;;;;;443.63;28.58;;;9.90;99.90;;;;;;5027301;28;20025;-88
2022/11/09 08:27:56;;;;;;;579.15;34.50;;;9.90;99.90;;;;;;5042329;28;20025;-88
2022/11/09 08:30:22;;;;;;;421.27;29.05;;;9.90;99.90;;;;;;5027165;28;20785;-88
2022/11/09 08:32:48;;;;;;;405.17;29.30;;;9.90;99.90;;;;;;5026733;28;20031;-88
2022/11/09 08:35:20;;;;;;;742.80;41.03;;;9.90;99.90;;;;;;5027017;28;20098;-88
2022/11/09 08:37:47;;;;;;;;;;;9.90;99.90;;;;;;5025412;28;20025;-88
2022/11/09 08:40:15;;;;;;;283.27;25.35;;;9.90;99.90;;;;;;5044041;28;19948;-88
2022/11/09 08:46:29;;;;;;;121.25;19.00;;;10.00;99.90;;;;;;5030370;28;20109;-88
2022/11/09 08:48:54;;;;;;;240.30;24.67;;;10.00;99.90;;;;;;5035935;28;20483;-88
2022/11/09 08:51:20;;;;;;;68.68;19.67;;;10.00;99.90;;;;;;5028549;28;20033;-89
2022/11/09 08:53:45;;;;;;;129.10;24.17;;;10.00;99.90;;;;;;5041914;28;20025;-88
2022/11/09 08:56:11;;;;;;;91.78;21.40;;;10.10;99.90;;;;;;5043576;28;20687;-89
2022/11/09 08:58:38;;;;;;;47.08;18.35;;;10.10;99.90;;;;;;5024330;28;20036;-88
2022/11/09 09:01:10;;;;;;;123.70;20.13;;;10.10;99.90;;;;;;5026574;28;20036;-88
2022/11/09 09:03:36;;;;;;;30.13;16.08;;;10.10;99.90;;;;;;5023459;28;20127;-88
2022/11/09 09:06:06;;;;;;;21.85;12.10;;;10.20;99.90;;;;;;5043426;28;20468;-88
2022/11/09 09:08:33;;;;;;;20.13;12.10;;;10.30;99.90;;;;;;5025205;28;20032;-88
2022/11/09 09:11:03;;;;;;;21.80;10.35;;;10.30;99.90;;;;;;5026339;28;20111;-88
2022/11/09 09:13:30;;;;;;;18.20;8.70;;;10.40;99.90;;;;;;5043217;28;20817;-88
2022/11/09 09:15:55;;;;;;;17.95;10.07;;;10.50;99.90;;;;;;5044851;28;20036;-89
2022/11/09 09:18:21;;;;;;;16.73;9.23;;;10.50;99.90;;;;;;5030889;28;20392;-88
2022/11/09 09:20:47;;;;;;;15.13;9.23;;;10.50;99.90;;;;;;5028939;28;20524;-88
2022/11/09 09:23:14;;;;;;;25.13;13.15;;;10.60;99.90;;;;;;5047446;28;20384;-88
2022/11/09 09:25:39;;;;;;;18.27;10.05;;;10.70;99.90;;;;;;5029513;28;20032;-88
2022/11/09 09:28:55;;;;;;;14.80;9.45;;;10.90;99.90;;;;;;5030977;28;20029;-88
2022/11/09 09:31:30;;;;;;;13.68;8.10;;;11.00;99.90;;;;;;5018546;28;20561;-88
2022/11/09 09:33:56;;;;;;;10.32;7.63;;;11.10;99.90;;;;;;5032291;28;20026;-89
2022/11/09 09:36:23;;;;;;;12.40;8.32;;;11.20;99.90;;;;;;5044350;28;20087;-89
2022/11/09 09:38:53;;;;;;;14.15;7.82;;;11.30;99.90;;;;;;5050345;28;20025;-88
2022/11/09 09:41:34;;;;;;;9.23;6.18;;;11.40;99.90;;;;;;5030054;28;20596;-88
2022/11/09 09:44:18;;;;;;;8.65;6.30;;;11.50;99.90;;;;;;5017828;28;20029;-89
2022/11/09 09:46:54;;;;;;;9.02;5.38;;;11.70;99.90;;;;;;5027781;28;20034;-88
2022/11/09 09:49:26;;;;;;;6.20;4.68;;;11.80;99.90;;;;;;5031691;28;20026;-89
2022/11/09 09:52:48;;;;;;;5.93;4.45;;;12.10;99.90;;;;;;5046407;28;20037;-88
2022/11/09 09:55:23;;;;;;;5.93;4.28;;;12.10;99.90;;;;;;5042850;28;20037;-89
2022/11/09 09:57:53;;;;;;;5.85;4.47;;;12.00;99.90;;;;;;5043554;28;20035;-90
2022/11/09 10:00:25;;;;;;;7.15;4.43;;;11.90;99.90;;;;;;5029494;28;20044;-88
2022/11/09 10:02:52;;;;;;;12.95;4.72;;;11.90;99.90;;;;;;5025167;28;20029;-89
2022/11/09 10:05:19;;;;;;;7.38;4.78;;;11.90;99.90;;;;;;5029082;28;20030;-88
2022/11/09 10:07:58;;;;;;;8.13;4.50;;;11.80;99.90;;;;;;5027984;28;20116;-89
2022/11/09 10:10:53;;;;;;;8.07;4.82;;;11.80;99.90;;;;;;5029348;28;20034;-89
2022/11/09 10:13:46;;;;;;;6.18;4.85;;;11.80;99.90;;;;;;5039562;28;20037;-89
2022/11/09 10:16:31;;;;;;;7.22;4.88;;;11.90;99.90;;;;;;5022989;28;20055;-89
2022/11/09 10:19:24;;;;;;;7.88;5.68;;;12.10;99.90;;;;;;5023848;28;20080;-89
2022/11/09 10:22:24;;;;;;;6.15;5.15;;;12.30;99.90;;;;;;5049643;28;20039;-89
2022/11/09 10:25:02;;;;;;;5.20;4.43;;;12.50;99.90;;;;;;5028269;28;20061;-88
2022/11/09 10:27:37;;;;;;;8.52;5.68;;;12.70;99.90;;;;;;5044117;28;20715;-89
2022/11/09 10:30:17;;;;;;;6.03;4.22;;;12.80;99.90;;;;;;5039499;28;20052;-89
2022/11/09 10:32:47;;;;;;;8.38;3.70;;;12.80;99.90;;;;;;5051386;28;20026;-89
2022/11/09 10:35:18;;;;;;;13.70;6.53;;;12.90;99.90;;;;;;5035107;28;20036;-89
2022/11/09 10:37:47;;;;;;;8.50;4.75;;;13.20;99.90;;;;;;5040482;28;20068;-89
2022/11/09 10:40:24;;;;;;;6.88;4.57;;;13.20;99.90;;;;;;5045843;28;20075;-89
2022/11/09 10:43:11;;;;;;;4.53;3.30;;;13.10;99.90;;;;;;5026820;28;20175;-89
2022/11/09 10:46:03;;;;;;;7.05;4.53;;;12.90;99.90;;;;;;5025792;28;20164;-89
2022/11/09 10:48:48;;;;;;;6.47;4.30;;;12.70;99.90;;;;;;5034015;28;20053;-88
2022/11/09 10:51:46;;;;;;;6.70;4.55;;;12.70;99.90;;;;;;5035490;28;20048;-89
2022/11/09 10:58:33;;;;;;;14.75;8.27;;;12.50;99.90;;;;;;5029349;28;20103;-89
2022/11/09 11:01:21;;;;;;;12.63;8.02;;;12.50;99.90;;;;;;5027888;28;20044;-88
2022/11/09 11:04:20;;;;;;;9.30;5.80;;;12.40;99.90;;;;;;5027372;28;20041;-88
2022/11/09 11:07:33;;;;;;;10.65;5.93;;;12.40;99.90;;;;;;5026593;28;20622;-88
2022/11/09 11:10:19;;;;;;;9.13;5.40;;;12.50;99.90;;;;;;5029169;28;20500;-88
2022/11/09 11:13:03;;;;;;;6.40;4.30;;;12.70;99.90;;;;;;5032594;28;20099;-88
2022/11/09 11:15:48;;;;;;;5.75;5.07;;;12.90;99.90;;;;;;5029437;28;20081;-88
2022/11/09 11:18:34;;;;;;;5.20;4.32;;;13.10;99.90;;;;;;5029758;28;20080;-87
2022/11/09 11:21:21;;;;;;;7.25;4.70;;;13.20;99.90;;;;;;5028226;28;20153;-88
2022/11/09 11:24:19;;;;;;;8.77;5.30;;;13.40;99.90;;;;;;5025405;28;20063;-88
2022/11/09 11:27:09;;;;;;;6.93;4.57;;;13.40;99.90;;;;;;5030289;28;20044;-88
2022/11/09 11:30:35;;;;;;;8.15;5.82;;;13.50;99.90;;;;;;5041482;28;20052;-88
2022/11/09 11:33:20;;;;;;;6.70;4.95;;;13.50;99.90;;;;;;5034450;28;20572;-88
2022/11/09 11:36:36;;;;;;;5.90;4.30;;;13.60;99.90;;;;;;5035455;28;20392;-87
2022/11/09 11:39:35;;;;;;;5.82;4.07;;;13.70;99.90;;;;;;5041735;28;20079;-87
2022/11/09 11:42:38;;;;;;;6.10;4.53;;;13.50;99.90;;;;;;5039477;28;20041;-87
2022/11/09 11:45:31;;;;;;;6.50;4.25;;;13.20;99.90;;;;;;5036050;28;20048;-87
2022/11/09 11:48:25;;;;;;;5.50;4.53;;;13.20;99.90;;;;;;5041445;28;20032;-87
2022/11/09 11:51:43;;;;;;;8.15;4.22;;;13.10;99.90;;;;;;5037327;28;20071;-87
2022/11/09 11:54:43;;;;;;;8.93;5.00;;;13.10;99.90;;;;;;5036106;28;20052;-87
2022/11/09 11:57:46;;;;;;;9.80;6.57;;;13.00;99.90;;;;;;5037057;28;20072;-87
2022/11/09 12:00:48;;;;;;;10.32;5.03;;;12.80;99.90;;;;;;5039015;28;20550;-87
2022/11/09 12:03:38;;;;;;;;;;;12.80;99.90;;;;;;5041216;28;20093;-87
2022/11/09 12:07:01;;;;;;;7.85;5.93;;;12.70;99.90;;;;;;5042992;28;19915;-87
2022/11/09 12:09:55;;;;;;;10.77;6.53;;;12.50;99.90;;;;;;5046226;28;20043;-88
2022/11/09 12:12:54;;;;;;;14.07;5.93;;;12.50;99.90;;;;;;5039102;28;20076;-87
2022/11/09 12:15:50;;;;;;;8.13;5.72;;;12.50;99.90;;;;;;5042149;28;20032;-87
2022/11/09 12:18:56;;;;;;;7.68;5.40;;;12.60;99.90;;;;;;5042198;28;20070;-87
2022/11/09 12:22:07;;;;;;;6.07;5.40;;;12.60;99.90;;;;;;5044549;28;20069;-87
2022/11/09 12:25:15;;;;;;;7.82;5.57;;;12.80;99.90;;;;;;5042569;28;20040;-87
2022/11/09 12:28:21;;;;;;;8.63;4.90;;;12.80;99.90;;;;;;5044017;28;20135;-87
2022/11/09 12:31:50;;;;;;;8.98;4.20;;;12.80;99.90;;;;;;5043645;28;20079;-87
2022/11/09 12:35:32;;;;;;;11.80;6.35;;;12.80;99.90;;;;;;5041384;28;20086;-87
2022/11/09 12:38:22;;;;;;;8.57;4.78;;;12.70;99.90;;;;;;5032536;28;20507;-86
2022/11/09 12:41:13;;;;;;;7.75;4.50;;;12.70;99.90;;;;;;5019108;28;20045;-86
2022/11/09 12:44:40;;;;;;;8.43;4.85;;;12.70;99.90;;;;;;5030917;28;20388;-86
2022/11/09 12:47:34;;;;;;;8.68;5.13;;;12.60;99.90;;;;;;5028457;28;20570;-86
2022/11/09 12:50:23;;;;;;;13.30;5.68;;;12.60;99.90;;;;;;5038159;28;20044;-86
2022/11/09 12:53:07;;;;;;;8.95;5.40;;;12.60;99.90;;;;;;5031046;28;20040;-86
2022/11/09 12:56:25;;;;;;;15.32;5.20;;;12.60;99.90;;;;;;5029951;28;20084;-86
2022/11/09 12:59:21;;;;;;;9.30;5.47;;;12.70;99.90;;;;;;5030762;28;20087;-86
2022/11/09 13:02:05;;;;;;;8.43;5.65;;;12.60;99.90;;;;;;5025502;28;20094;-87
2022/11/09 13:05:07;;;;;;;13.32;6.32;;;12.50;99.90;;;;;;5030124;28;20467;-87
2022/11/09 13:07:53;;;;;;;9.65;5.72;;;12.40;99.90;;;;;;5024868;28;20044;-87
2022/11/09 13:10:38;;;;;;;7.97;5.50;;;12.20;99.90;;;;;;5025828;28;20554;-86
2022/11/09 13:13:24;;;;;;;10.73;6.35;;;12.20;99.90;;;;;;5030992;28;20405;-86
2022/11/09 13:16:33;;;;;;;8.60;4.95;;;12.30;99.90;;;;;;5024554;28;20036;-87
2022/11/09 13:19:33;;;;;;;9.65;5.53;;;12.30;99.90;;;;;;5030791;28;20040;-87
2022/11/09 13:22:21;;;;;;;10.73;6.35;;;12.40;99.90;;;;;;5022811;28;20529;-86
2022/11/09 13:25:51;;;;;;;15.57;5.72;;;12.40;99.90;;;;;;5025125;28;20043;-87
2022/11/09 13:28:41;;;;;;;12.75;5.88;;;12.40;99.90;;;;;;5028269;28;20036;-87